O Cargolux 764 dessa sexta-feira, arremeteu por volta das 3 da manhã. Os pilotos não conseguiram visual com a pista devido ao nevoeiro e logo em seguida, após a arremetida, pediram retorno imediato para Viracopos, Campinas.
Assim que as condições do Aeroporto Afonso Pena melhorarem, a aeronave possivelmente retornará. O METAR no momento da arremetida era: SBCT 310600Z 04004KT 0400 R15/0500 R33/0300 FG VV001 09/09 Q1024.

UPDATE: 15:06 / 31.08.12

O B744F Cargolux prefixo LX-UCV pousou por volta de 09:40 (12:40Z).  A aeronave decolou às 11:47 (14:47Z).